sensor_id;sensor_type;location;lat;lon;timestamp;P1;durP1;ratioP1;P2;durP2;ratioP2
70477;SDS011;57956;53.362;-1.518;2023-04-19T00:01:18;1.73;;;0.77;;
70477;SDS011;57956;53.362;-1.518;2023-04-19T00:03:44;2.47;;;0.70;;
70477;SDS011;57956;53.362;-1.518;2023-04-19T00:06:09;1.60;;;0.47;;
70477;SDS011;57956;53.362;-1.518;2023-04-19T00:08:34;2.40;;;0.77;;
70477;SDS011;57956;53.362;-1.518;2023-04-19T00:11:00;1.33;;;0.40;;
70477;SDS011;57956;53.362;-1.518;2023-04-19T00:13:25;2.80;;;1.10;;
70477;SDS011;57956;53.362;-1.518;2023-04-19T00:15:53;1.83;;;0.75;;
70477;SDS011;57956;53.362;-1.518;2023-04-19T00:18:18;1.87;;;0.50;;
70477;SDS011;57956;53.362;-1.518;2023-04-19T00:20:43;5.23;;;1.33;;
70477;SDS011;57956;53.362;-1.518;2023-04-19T00:23:08;2.83;;;0.93;;
70477;SDS011;57956;53.362;-1.518;2023-04-19T00:25:34;2.13;;;1.00;;
70477;SDS011;57956;53.362;-1.518;2023-04-19T00:27:59;1.77;;;0.47;;
70477;SDS011;57956;53.362;-1.518;2023-04-19T00:30:24;2.53;;;0.67;;
70477;SDS011;57956;53.362;-1.518;2023-04-19T00:32:49;3.07;;;0.97;;
70477;SDS011;57956;53.362;-1.518;2023-04-19T00:35:15;2.47;;;0.30;;
70477;SDS011;57956;53.362;-1.518;2023-04-19T00:37:40;1.73;;;0.30;;
70477;SDS011;57956;53.362;-1.518;2023-04-19T00:40:11;5.43;;;0.97;;
70477;SDS011;57956;53.362;-1.518;2023-04-19T00:42:36;1.70;;;0.47;;
70477;SDS011;57956;53.362;-1.518;2023-04-19T00:45:02;2.23;;;0.50;;
70477;SDS011;57956;53.362;-1.518;2023-04-19T00:47:27;2.63;;;0.70;;
70477;SDS011;57956;53.362;-1.518;2023-04-19T00:49:52;1.00;;;0.20;;
70477;SDS011;57956;53.362;-1.518;2023-04-19T00:52:18;2.35;;;0.60;;
70477;SDS011;57956;53.362;-1.518;2023-04-19T00:54:43;2.17;;;0.53;;
70477;SDS011;57956;53.362;-1.518;2023-04-19T00:57:09;3.50;;;1.60;;
70477;SDS011;57956;53.362;-1.518;2023-04-19T00:59:34;1.80;;;0.70;;
70477;SDS011;57956;53.362;-1.518;2023-04-19T01:01:59;1.73;;;0.40;;
70477;SDS011;57956;53.362;-1.518;2023-04-19T01:04:25;3.80;;;0.87;;
70477;SDS011;57956;53.362;-1.518;2023-04-19T01:06:50;2.47;;;0.50;;
70477;SDS011;57956;53.362;-1.518;2023-04-19T01:09:15;3.10;;;1.03;;
70477;SDS011;57956;53.362;-1.518;2023-04-19T01:11:41;1.97;;;0.53;;
70477;SDS011;57956;53.362;-1.518;2023-04-19T01:14:06;1.10;;;0.23;;
70477;SDS011;57956;53.362;-1.518;2023-04-19T01:16:31;1.77;;;0.77;;
70477;SDS011;57956;53.362;-1.518;2023-04-19T01:18:57;1.70;;;0.80;;
70477;SDS011;57956;53.362;-1.518;2023-04-19T01:21:22;4.65;;;1.00;;
70477;SDS011;57956;53.362;-1.518;2023-04-19T01:23:48;2.43;;;0.50;;
70477;SDS011;57956;53.362;-1.518;2023-04-19T01:26:13;1.43;;;0.53;;
70477;SDS011;57956;53.362;-1.518;2023-04-19T01:28:38;1.63;;;0.33;;
70477;SDS011;57956;53.362;-1.518;2023-04-19T01:31:03;2.40;;;0.83;;
70477;SDS011;57956;53.362;-1.518;2023-04-19T01:33:28;1.93;;;0.73;;
70477;SDS011;57956;53.362;-1.518;2023-04-19T01:35:54;2.30;;;1.20;;
70477;SDS011;57956;53.362;-1.518;2023-04-19T01:38:19;2.53;;;0.50;;
70477;SDS011;57956;53.362;-1.518;2023-04-19T01:40:44;2.53;;;0.80;;
70477;SDS011;57956;53.362;-1.518;2023-04-19T01:43:13;1.43;;;0.37;;
70477;SDS011;57956;53.362;-1.518;2023-04-19T01:45:38;2.95;;;0.93;;
70477;SDS011;57956;53.362;-1.518;2023-04-19T01:48:04;1.27;;;0.30;;
70477;SDS011;57956;53.362;-1.518;2023-04-19T01:50:29;2.77;;;1.07;;
70477;SDS011;57956;53.362;-1.518;2023-04-19T01:52:55;3.10;;;1.05;;
70477;SDS011;57956;53.362;-1.518;2023-04-19T01:55:20;2.93;;;0.77;;
70477;SDS011;57956;53.362;-1.518;2023-04-19T01:57:45;2.87;;;1.23;;
70477;SDS011;57956;53.362;-1.518;2023-04-19T02:00:10;2.13;;;0.70;;
70477;SDS011;57956;53.362;-1.518;2023-04-19T02:02:36;2.47;;;0.90;;
70477;SDS011;57956;53.362;-1.518;2023-04-19T02:05:02;3.65;;;0.63;;
70477;SDS011;57956;53.362;-1.518;2023-04-19T02:07:27;2.03;;;0.40;;
70477;SDS011;57956;53.362;-1.518;2023-04-19T02:09:52;2.60;;;0.93;;
70477;SDS011;57956;53.362;-1.518;2023-04-19T02:12:18;2.70;;;0.70;;
70477;SDS011;57956;53.362;-1.518;2023-04-19T02:14:43;4.53;;;1.10;;
70477;SDS011;57956;53.362;-1.518;2023-04-19T02:17:08;1.33;;;0.60;;
70477;SDS011;57956;53.362;-1.518;2023-04-19T02:19:33;3.13;;;1.00;;
70477;SDS011;57956;53.362;-1.518;2023-04-19T02:21:59;1.97;;;0.37;;
70477;SDS011;57956;53.362;-1.518;2023-04-19T02:24:24;1.90;;;0.50;;
70477;SDS011;57956;53.362;-1.518;2023-04-19T02:26:49;1.40;;;0.30;;
70477;SDS011;57956;53.362;-1.518;2023-04-19T02:29:15;2.13;;;0.80;;
70477;SDS011;57956;53.362;-1.518;2023-04-19T02:31:41;4.93;;;1.57;;
70477;SDS011;57956;53.362;-1.518;2023-04-19T02:34:06;2.20;;;1.20;;
70477;SDS011;57956;53.362;-1.518;2023-04-19T02:36:31;2.07;;;0.77;;
70477;SDS011;57956;53.362;-1.518;2023-04-19T02:38:57;1.42;;;0.40;;
70477;SDS011;57956;53.362;-1.518;2023-04-19T02:41:23;3.08;;;1.42;;
70477;SDS011;57956;53.362;-1.518;2023-04-19T02:43:48;2.00;;;0.60;;
70477;SDS011;57956;53.362;-1.518;2023-04-19T02:46:13;1.77;;;0.30;;
70477;SDS011;57956;53.362;-1.518;2023-04-19T02:48:39;2.97;;;1.00;;
70477;SDS011;57956;53.362;-1.518;2023-04-19T02:51:04;2.47;;;0.97;;
70477;SDS011;57956;53.362;-1.518;2023-04-19T02:53:29;1.67;;;0.50;;
70477;SDS011;57956;53.362;-1.518;2023-04-19T02:55:54;2.27;;;0.90;;
70477;SDS011;57956;53.362;-1.518;2023-04-19T02:58:20;1.73;;;0.60;;
70477;SDS011;57956;53.362;-1.518;2023-04-19T03:00:45;1.83;;;0.70;;
70477;SDS011;57956;53.362;-1.518;2023-04-19T03:03:10;1.90;;;0.50;;
70477;SDS011;57956;53.362;-1.518;2023-04-19T03:05:35;2.47;;;0.50;;
70477;SDS011;57956;53.362;-1.518;2023-04-19T03:08:01;4.33;;;0.40;;
70477;SDS011;57956;53.362;-1.518;2023-04-19T03:10:26;1.97;;;0.83;;
70477;SDS011;57956;53.362;-1.518;2023-04-19T03:12:51;4.20;;;0.80;;
70477;SDS011;57956;53.362;-1.518;2023-04-19T03:15:17;1.47;;;0.30;;
70477;SDS011;57956;53.362;-1.518;2023-04-19T03:17:42;2.95;;;0.90;;
70477;SDS011;57956;53.362;-1.518;2023-04-19T03:20:07;2.60;;;0.80;;
70477;SDS011;57956;53.362;-1.518;2023-04-19T03:22:36;2.60;;;0.80;;
70477;SDS011;57956;53.362;-1.518;2023-04-19T03:25:02;1.45;;;0.43;;
70477;SDS011;57956;53.362;-1.518;2023-04-19T03:27:27;1.20;;;0.33;;
70477;SDS011;57956;53.362;-1.518;2023-04-19T03:29:54;1.83;;;0.43;;
70477;SDS011;57956;53.362;-1.518;2023-04-19T03:32:19;1.23;;;0.32;;
70477;SDS011;57956;53.362;-1.518;2023-04-19T03:34:44;2.43;;;0.53;;
70477;SDS011;57956;53.362;-1.518;2023-04-19T03:37:09;2.43;;;1.03;;
70477;SDS011;57956;53.362;-1.518;2023-04-19T03:39:35;1.40;;;0.38;;
70477;SDS011;57956;53.362;-1.518;2023-04-19T03:42:00;2.03;;;0.63;;
70477;SDS011;57956;53.362;-1.518;2023-04-19T03:44:25;2.70;;;0.83;;
70477;SDS011;57956;53.362;-1.518;2023-04-19T03:46:50;2.47;;;0.90;;
70477;SDS011;57956;53.362;-1.518;2023-04-19T03:49:16;1.77;;;0.60;;
70477;SDS011;57956;53.362;-1.518;2023-04-19T03:51:41;1.73;;;0.50;;
70477;SDS011;57956;53.362;-1.518;2023-04-19T03:54:06;2.10;;;0.70;;
70477;SDS011;57956;53.362;-1.518;2023-04-19T03:56:31;4.80;;;1.20;;
70477;SDS011;57956;53.362;-1.518;2023-04-19T03:58:57;1.70;;;0.40;;
70477;SDS011;57956;53.362;-1.518;2023-04-19T04:01:22;4.43;;;1.07;;
70477;SDS011;57956;53.362;-1.518;2023-04-19T04:03:48;1.35;;;0.45;;
70477;SDS011;57956;53.362;-1.518;2023-04-19T04:06:13;1.77;;;0.50;;
70477;SDS011;57956;53.362;-1.518;2023-04-19T04:08:38;2.30;;;0.40;;
70477;SDS011;57956;53.362;-1.518;2023-04-19T04:11:04;2.03;;;0.65;;
70477;SDS011;57956;53.362;-1.518;2023-04-19T04:13:29;3.03;;;1.07;;
70477;SDS011;57956;53.362;-1.518;2023-04-19T04:15:54;2.70;;;1.20;;
70477;SDS011;57956;53.362;-1.518;2023-04-19T04:18:19;3.17;;;1.97;;
70477;SDS011;57956;53.362;-1.518;2023-04-19T04:20:45;2.60;;;0.93;;
70477;SDS011;57956;53.362;-1.518;2023-04-19T04:23:10;1.73;;;0.50;;
70477;SDS011;57956;53.362;-1.518;2023-04-19T04:25:35;1.93;;;0.53;;
70477;SDS011;57956;53.362;-1.518;2023-04-19T04:28:02;2.15;;;0.75;;
70477;SDS011;57956;53.362;-1.518;2023-04-19T04:30:28;2.33;;;0.45;;
70477;SDS011;57956;53.362;-1.518;2023-04-19T04:32:53;1.60;;;0.57;;
70477;SDS011;57956;53.362;-1.518;2023-04-19T04:35:21;2.13;;;0.67;;
70477;SDS011;57956;53.362;-1.518;2023-04-19T04:37:47;2.33;;;0.70;;
70477;SDS011;57956;53.362;-1.518;2023-04-19T04:40:12;2.97;;;0.75;;
70477;SDS011;57956;53.362;-1.518;2023-04-19T04:42:38;1.25;;;0.47;;
70477;SDS011;57956;53.362;-1.518;2023-04-19T04:45:03;5.20;;;1.43;;
70477;SDS011;57956;53.362;-1.518;2023-04-19T04:47:33;1.93;;;0.57;;
70477;SDS011;57956;53.362;-1.518;2023-04-19T04:49:58;4.82;;;1.85;;
70477;SDS011;57956;53.362;-1.518;2023-04-19T04:52:23;2.55;;;0.70;;
70477;SDS011;57956;53.362;-1.518;2023-04-19T04:54:49;2.57;;;0.97;;
70477;SDS011;57956;53.362;-1.518;2023-04-19T04:57:14;1.60;;;0.50;;
70477;SDS011;57956;53.362;-1.518;2023-04-19T04:59:40;1.73;;;0.40;;
70477;SDS011;57956;53.362;-1.518;2023-04-19T05:02:05;4.20;;;1.08;;
70477;SDS011;57956;53.362;-1.518;2023-04-19T05:04:30;1.13;;;0.43;;
70477;SDS011;57956;53.362;-1.518;2023-04-19T05:06:55;3.40;;;0.83;;
70477;SDS011;57956;53.362;-1.518;2023-04-19T05:09:21;3.07;;;1.57;;
70477;SDS011;57956;53.362;-1.518;2023-04-19T05:11:46;2.93;;;1.03;;
70477;SDS011;57956;53.362;-1.518;2023-04-19T05:14:11;3.33;;;1.30;;
70477;SDS011;57956;53.362;-1.518;2023-04-19T05:16:37;3.63;;;1.03;;
70477;SDS011;57956;53.362;-1.518;2023-04-19T05:19:02;1.67;;;0.30;;
70477;SDS011;57956;53.362;-1.518;2023-04-19T05:21:27;2.13;;;0.97;;
70477;SDS011;57956;53.362;-1.518;2023-04-19T05:23:52;2.07;;;0.83;;
70477;SDS011;57956;53.362;-1.518;2023-04-19T05:26:18;4.32;;;1.58;;
70477;SDS011;57956;53.362;-1.518;2023-04-19T05:28:43;2.53;;;1.00;;
70477;SDS011;57956;53.362;-1.518;2023-04-19T05:31:09;2.30;;;0.80;;
70477;SDS011;57956;53.362;-1.518;2023-04-19T05:33:34;3.07;;;1.80;;
70477;SDS011;57956;53.362;-1.518;2023-04-19T05:36:00;1.90;;;0.60;;
70477;SDS011;57956;53.362;-1.518;2023-04-19T05:38:25;2.67;;;1.07;;
70477;SDS011;57956;53.362;-1.518;2023-04-19T05:40:50;2.37;;;0.63;;
70477;SDS011;57956;53.362;-1.518;2023-04-19T05:43:15;2.83;;;0.80;;
70477;SDS011;57956;53.362;-1.518;2023-04-19T05:45:40;6.37;;;0.80;;
70477;SDS011;57956;53.362;-1.518;2023-04-19T05:48:06;2.47;;;0.93;;
70477;SDS011;57956;53.362;-1.518;2023-04-19T05:50:31;4.90;;;0.73;;
70477;SDS011;57956;53.362;-1.518;2023-04-19T05:52:56;4.27;;;1.20;;
70477;SDS011;57956;53.362;-1.518;2023-04-19T05:55:24;2.63;;;1.00;;
70477;SDS011;57956;53.362;-1.518;2023-04-19T05:57:49;3.35;;;1.55;;
70477;SDS011;57956;53.362;-1.518;2023-04-19T06:00:14;3.53;;;1.23;;
70477;SDS011;57956;53.362;-1.518;2023-04-19T06:02:40;3.08;;;1.35;;
70477;SDS011;57956;53.362;-1.518;2023-04-19T06:05:05;5.07;;;1.73;;
70477;SDS011;57956;53.362;-1.518;2023-04-19T06:07:31;4.03;;;1.37;;
70477;SDS011;57956;53.362;-1.518;2023-04-19T06:09:56;2.77;;;0.80;;
70477;SDS011;57956;53.362;-1.518;2023-04-19T06:12:21;2.43;;;0.73;;
70477;SDS011;57956;53.362;-1.518;2023-04-19T06:14:46;2.70;;;1.13;;
70477;SDS011;57956;53.362;-1.518;2023-04-19T06:17:12;4.57;;;1.43;;
70477;SDS011;57956;53.362;-1.518;2023-04-19T06:19:38;2.70;;;1.07;;
70477;SDS011;57956;53.362;-1.518;2023-04-19T06:22:03;3.67;;;1.45;;
70477;SDS011;57956;53.362;-1.518;2023-04-19T06:24:28;4.40;;;0.80;;
70477;SDS011;57956;53.362;-1.518;2023-04-19T06:26:54;1.43;;;0.30;;
70477;SDS011;57956;53.362;-1.518;2023-04-19T06:29:21;3.67;;;1.83;;
70477;SDS011;57956;53.362;-1.518;2023-04-19T06:31:48;4.05;;;1.27;;
70477;SDS011;57956;53.362;-1.518;2023-04-19T06:34:13;2.87;;;1.13;;
70477;SDS011;57956;53.362;-1.518;2023-04-19T06:36:39;2.75;;;0.60;;
70477;SDS011;57956;53.362;-1.518;2023-04-19T06:39:04;3.10;;;1.30;;
70477;SDS011;57956;53.362;-1.518;2023-04-19T06:41:29;4.27;;;1.33;;
70477;SDS011;57956;53.362;-1.518;2023-04-19T06:43:55;3.63;;;0.77;;
70477;SDS011;57956;53.362;-1.518;2023-04-19T06:46:20;3.17;;;0.80;;
70477;SDS011;57956;53.362;-1.518;2023-04-19T06:48:45;3.50;;;1.87;;
70477;SDS011;57956;53.362;-1.518;2023-04-19T06:51:10;2.70;;;1.30;;
70477;SDS011;57956;53.362;-1.518;2023-04-19T06:53:36;2.70;;;1.17;;
70477;SDS011;57956;53.362;-1.518;2023-04-19T06:56:02;3.33;;;0.77;;
70477;SDS011;57956;53.362;-1.518;2023-04-19T06:58:28;3.33;;;1.23;;
70477;SDS011;57956;53.362;-1.518;2023-04-19T07:00:53;2.47;;;0.70;;
70477;SDS011;57956;53.362;-1.518;2023-04-19T07:03:19;2.70;;;0.70;;
70477;SDS011;57956;53.362;-1.518;2023-04-19T07:05:45;5.03;;;1.83;;
70477;SDS011;57956;53.362;-1.518;2023-04-19T07:08:10;4.10;;;1.38;;
70477;SDS011;57956;53.362;-1.518;2023-04-19T07:10:35;4.87;;;1.40;;
70477;SDS011;57956;53.362;-1.518;2023-04-19T07:13:00;3.87;;;1.27;;
70477;SDS011;57956;53.362;-1.518;2023-04-19T07:15:25;4.40;;;1.57;;
70477;SDS011;57956;53.362;-1.518;2023-04-19T07:17:51;5.03;;;1.77;;
70477;SDS011;57956;53.362;-1.518;2023-04-19T07:20:16;4.93;;;2.03;;
70477;SDS011;57956;53.362;-1.518;2023-04-19T07:22:41;2.40;;;1.13;;
70477;SDS011;57956;53.362;-1.518;2023-04-19T07:25:07;11.13;;;2.53;;
70477;SDS011;57956;53.362;-1.518;2023-04-19T07:27:32;3.93;;;1.20;;
70477;SDS011;57956;53.362;-1.518;2023-04-19T07:29:57;4.30;;;1.10;;
70477;SDS011;57956;53.362;-1.518;2023-04-19T07:32:22;4.87;;;1.50;;
70477;SDS011;57956;53.362;-1.518;2023-04-19T07:34:47;6.50;;;1.90;;
70477;SDS011;57956;53.362;-1.518;2023-04-19T07:37:13;4.60;;;1.50;;
70477;SDS011;57956;53.362;-1.518;2023-04-19T07:39:38;5.23;;;2.07;;
70477;SDS011;57956;53.362;-1.518;2023-04-19T07:42:03;3.03;;;1.07;;
70477;SDS011;57956;53.362;-1.518;2023-04-19T07:44:29;4.70;;;1.63;;
70477;SDS011;57956;53.362;-1.518;2023-04-19T07:46:54;6.73;;;1.60;;
70477;SDS011;57956;53.362;-1.518;2023-04-19T07:49:19;5.20;;;2.60;;
70477;SDS011;57956;53.362;-1.518;2023-04-19T07:51:45;5.13;;;2.00;;
70477;SDS011;57956;53.362;-1.518;2023-04-19T07:54:10;5.17;;;2.30;;
70477;SDS011;57956;53.362;-1.518;2023-04-19T07:56:35;8.27;;;3.40;;
70477;SDS011;57956;53.362;-1.518;2023-04-19T07:59:00;4.90;;;1.97;;
70477;SDS011;57956;53.362;-1.518;2023-04-19T08:01:26;5.80;;;1.70;;
70477;SDS011;57956;53.362;-1.518;2023-04-19T08:03:51;4.70;;;1.33;;
70477;SDS011;57956;53.362;-1.518;2023-04-19T08:06:16;6.40;;;1.90;;
70477;SDS011;57956;53.362;-1.518;2023-04-19T08:08:42;4.50;;;1.57;;
70477;SDS011;57956;53.362;-1.518;2023-04-19T08:11:07;5.00;;;2.17;;
70477;SDS011;57956;53.362;-1.518;2023-04-19T08:13:32;4.57;;;2.33;;
70477;SDS011;57956;53.362;-1.518;2023-04-19T08:15:57;5.53;;;2.30;;
70477;SDS011;57956;53.362;-1.518;2023-04-19T08:18:26;3.37;;;1.70;;
70477;SDS011;57956;53.362;-1.518;2023-04-19T08:20:51;3.80;;;1.35;;
70477;SDS011;57956;53.362;-1.518;2023-04-19T08:23:16;5.67;;;2.33;;
70477;SDS011;57956;53.362;-1.518;2023-04-19T08:25:41;6.10;;;1.87;;
70477;SDS011;57956;53.362;-1.518;2023-04-19T08:28:07;6.23;;;3.00;;
70477;SDS011;57956;53.362;-1.518;2023-04-19T08:30:32;7.97;;;2.47;;
70477;SDS011;57956;53.362;-1.518;2023-04-19T08:32:57;5.67;;;2.73;;
70477;SDS011;57956;53.362;-1.518;2023-04-19T08:35:23;8.07;;;2.87;;
70477;SDS011;57956;53.362;-1.518;2023-04-19T08:37:49;4.63;;;2.38;;
70477;SDS011;57956;53.362;-1.518;2023-04-19T08:40:14;6.75;;;3.13;;
70477;SDS011;57956;53.362;-1.518;2023-04-19T08:42:41;14.37;;;2.90;;
70477;SDS011;57956;53.362;-1.518;2023-04-19T08:45:06;7.18;;;2.22;;
70477;SDS011;57956;53.362;-1.518;2023-04-19T08:47:32;4.10;;;1.83;;
70477;SDS011;57956;53.362;-1.518;2023-04-19T08:49:59;5.05;;;2.00;;
70477;SDS011;57956;53.362;-1.518;2023-04-19T08:52:24;3.67;;;1.85;;
70477;SDS011;57956;53.362;-1.518;2023-04-19T08:54:50;4.63;;;2.03;;
70477;SDS011;57956;53.362;-1.518;2023-04-19T08:57:17;6.53;;;2.77;;
70477;SDS011;57956;53.362;-1.518;2023-04-19T08:59:42;12.20;;;1.97;;
70477;SDS011;57956;53.362;-1.518;2023-04-19T09:02:09;9.70;;;3.80;;
70477;SDS011;57956;53.362;-1.518;2023-04-19T09:04:35;5.67;;;2.90;;
70477;SDS011;57956;53.362;-1.518;2023-04-19T09:07:00;5.80;;;1.38;;
70477;SDS011;57956;53.362;-1.518;2023-04-19T09:09:26;7.20;;;2.43;;
70477;SDS011;57956;53.362;-1.518;2023-04-19T09:11:52;7.03;;;2.93;;
70477;SDS011;57956;53.362;-1.518;2023-04-19T09:14:18;6.00;;;1.75;;
70477;SDS011;57956;53.362;-1.518;2023-04-19T09:16:43;6.07;;;1.93;;
70477;SDS011;57956;53.362;-1.518;2023-04-19T09:19:09;4.35;;;1.73;;
70477;SDS011;57956;53.362;-1.518;2023-04-19T09:21:36;7.47;;;2.55;;
70477;SDS011;57956;53.362;-1.518;2023-04-19T09:24:01;6.30;;;2.30;;
70477;SDS011;57956;53.362;-1.518;2023-04-19T09:26:27;6.50;;;1.53;;
70477;SDS011;57956;53.362;-1.518;2023-04-19T09:28:58;5.10;;;1.73;;
70477;SDS011;57956;53.362;-1.518;2023-04-19T09:31:26;3.70;;;1.45;;
70477;SDS011;57956;53.362;-1.518;2023-04-19T09:33:51;4.00;;;1.57;;
70477;SDS011;57956;53.362;-1.518;2023-04-19T09:36:31;7.90;;;3.25;;
70477;SDS011;57956;53.362;-1.518;2023-04-19T09:38:57;3.78;;;1.77;;
70477;SDS011;57956;53.362;-1.518;2023-04-19T09:41:22;5.03;;;2.03;;
70477;SDS011;57956;53.362;-1.518;2023-04-19T09:43:48;6.43;;;1.38;;
70477;SDS011;57956;53.362;-1.518;2023-04-19T09:46:29;3.17;;;1.13;;
70477;SDS011;57956;53.362;-1.518;2023-04-19T09:48:54;6.57;;;3.25;;
70477;SDS011;57956;53.362;-1.518;2023-04-19T09:51:20;6.30;;;1.88;;
70477;SDS011;57956;53.362;-1.518;2023-04-19T09:53:46;3.77;;;1.73;;
70477;SDS011;57956;53.362;-1.518;2023-04-19T09:56:12;7.20;;;2.92;;
70477;SDS011;57956;53.362;-1.518;2023-04-19T09:58:37;3.53;;;1.60;;
70477;SDS011;57956;53.362;-1.518;2023-04-19T10:01:03;4.20;;;2.33;;
70477;SDS011;57956;53.362;-1.518;2023-04-19T10:03:28;5.30;;;1.67;;
70477;SDS011;57956;53.362;-1.518;2023-04-19T10:05:54;3.17;;;0.85;;
70477;SDS011;57956;53.362;-1.518;2023-04-19T10:08:19;3.97;;;1.23;;
70477;SDS011;57956;53.362;-1.518;2023-04-19T10:10:44;4.73;;;2.23;;
70477;SDS011;57956;53.362;-1.518;2023-04-19T10:13:11;4.53;;;1.88;;
70477;SDS011;57956;53.362;-1.518;2023-04-19T10:15:37;4.78;;;2.53;;
70477;SDS011;57956;53.362;-1.518;2023-04-19T10:18:03;3.43;;;1.27;;
70477;SDS011;57956;53.362;-1.518;2023-04-19T10:22:53;6.20;;;1.63;;
70477;SDS011;57956;53.362;-1.518;2023-04-19T10:25:19;6.00;;;1.90;;
70477;SDS011;57956;53.362;-1.518;2023-04-19T10:27:51;3.50;;;1.42;;
70477;SDS011;57956;53.362;-1.518;2023-04-19T10:32:43;3.50;;;1.00;;
70477;SDS011;57956;53.362;-1.518;2023-04-19T10:35:10;2.80;;;1.52;;
70477;SDS011;57956;53.362;-1.518;2023-04-19T10:37:40;3.08;;;0.88;;
70477;SDS011;57956;53.362;-1.518;2023-04-19T10:45:34;4.13;;;1.37;;
70477;SDS011;57956;53.362;-1.518;2023-04-19T10:48:01;7.10;;;1.77;;
70477;SDS011;57956;53.362;-1.518;2023-04-19T10:50:26;4.72;;;1.60;;
70477;SDS011;57956;53.362;-1.518;2023-04-19T10:52:51;3.80;;;1.50;;
70477;SDS011;57956;53.362;-1.518;2023-04-19T10:55:20;3.93;;;1.93;;
70477;SDS011;57956;53.362;-1.518;2023-04-19T10:58:04;3.17;;;0.93;;
70477;SDS011;57956;53.362;-1.518;2023-04-19T11:00:30;7.70;;;1.65;;
70477;SDS011;57956;53.362;-1.518;2023-04-19T11:02:57;5.22;;;1.55;;
70477;SDS011;57956;53.362;-1.518;2023-04-19T11:05:22;3.47;;;1.47;;
70477;SDS011;57956;53.362;-1.518;2023-04-19T11:07:47;4.73;;;1.00;;
70477;SDS011;57956;53.362;-1.518;2023-04-19T11:10:12;1.80;;;0.50;;
70477;SDS011;57956;53.362;-1.518;2023-04-19T11:12:51;6.18;;;1.58;;
70477;SDS011;57956;53.362;-1.518;2023-04-19T11:15:16;5.63;;;2.00;;
70477;SDS011;57956;53.362;-1.518;2023-04-19T11:17:48;2.10;;;0.73;;
70477;SDS011;57956;53.362;-1.518;2023-04-19T11:20:13;5.68;;;1.95;;
70477;SDS011;57956;53.362;-1.518;2023-04-19T11:22:44;3.30;;;1.23;;
70477;SDS011;57956;53.362;-1.518;2023-04-19T11:27:35;3.07;;;0.73;;
70477;SDS011;57956;53.362;-1.518;2023-04-19T11:30:08;7.63;;;2.42;;
70477;SDS011;57956;53.362;-1.518;2023-04-19T11:32:33;2.78;;;0.98;;
70477;SDS011;57956;53.362;-1.518;2023-04-19T11:35:03;6.63;;;2.25;;
70477;SDS011;57956;53.362;-1.518;2023-04-19T11:37:31;7.50;;;1.43;;
70477;SDS011;57956;53.362;-1.518;2023-04-19T11:39:56;3.50;;;1.15;;
70477;SDS011;57956;53.362;-1.518;2023-04-19T11:42:21;6.27;;;1.57;;
70477;SDS011;57956;53.362;-1.518;2023-04-19T11:44:47;7.47;;;1.93;;
70477;SDS011;57956;53.362;-1.518;2023-04-19T11:47:13;4.30;;;1.15;;
70477;SDS011;57956;53.362;-1.518;2023-04-19T11:49:38;3.20;;;1.20;;
70477;SDS011;57956;53.362;-1.518;2023-04-19T11:52:04;3.00;;;1.02;;
70477;SDS011;57956;53.362;-1.518;2023-04-19T11:54:30;4.22;;;1.02;;
70477;SDS011;57956;53.362;-1.518;2023-04-19T11:56:56;4.53;;;0.93;;
70477;SDS011;57956;53.362;-1.518;2023-04-19T11:59:21;3.57;;;0.80;;
70477;SDS011;57956;53.362;-1.518;2023-04-19T12:01:46;5.10;;;1.20;;
70477;SDS011;57956;53.362;-1.518;2023-04-19T12:04:11;4.03;;;1.53;;
70477;SDS011;57956;53.362;-1.518;2023-04-19T12:06:37;4.53;;;1.23;;
70477;SDS011;57956;53.362;-1.518;2023-04-19T12:09:05;3.67;;;0.80;;
70477;SDS011;57956;53.362;-1.518;2023-04-19T12:11:41;2.58;;;0.70;;
70477;SDS011;57956;53.362;-1.518;2023-04-19T12:14:09;6.63;;;1.38;;
70477;SDS011;57956;53.362;-1.518;2023-04-19T12:16:34;1.90;;;0.50;;
70477;SDS011;57956;53.362;-1.518;2023-04-19T12:19:09;7.23;;;2.67;;
70477;SDS011;57956;53.362;-1.518;2023-04-19T12:21:35;6.67;;;2.70;;
70477;SDS011;57956;53.362;-1.518;2023-04-19T12:24:00;8.33;;;1.00;;
70477;SDS011;57956;53.362;-1.518;2023-04-19T12:26:26;5.80;;;0.90;;
70477;SDS011;57956;53.362;-1.518;2023-04-19T12:28:52;4.40;;;1.30;;
70477;SDS011;57956;53.362;-1.518;2023-04-19T12:31:18;11.80;;;1.40;;
70477;SDS011;57956;53.362;-1.518;2023-04-19T12:33:44;2.75;;;1.02;;
70477;SDS011;57956;53.362;-1.518;2023-04-19T12:36:10;2.73;;;0.80;;
70477;SDS011;57956;53.362;-1.518;2023-04-19T12:38:35;3.63;;;1.10;;
70477;SDS011;57956;53.362;-1.518;2023-04-19T12:41:04;2.25;;;0.80;;
70477;SDS011;57956;53.362;-1.518;2023-04-19T12:43:30;2.58;;;0.68;;
70477;SDS011;57956;53.362;-1.518;2023-04-19T12:45:55;2.40;;;0.50;;
70477;SDS011;57956;53.362;-1.518;2023-04-19T12:48:22;3.92;;;0.80;;
70477;SDS011;57956;53.362;-1.518;2023-04-19T12:50:47;9.67;;;1.10;;
70477;SDS011;57956;53.362;-1.518;2023-04-19T12:53:12;2.83;;;0.70;;
70477;SDS011;57956;53.362;-1.518;2023-04-19T12:55:37;3.67;;;0.70;;
70477;SDS011;57956;53.362;-1.518;2023-04-19T12:58:03;3.63;;;0.90;;
70477;SDS011;57956;53.362;-1.518;2023-04-19T13:00:28;3.37;;;0.73;;
70477;SDS011;57956;53.362;-1.518;2023-04-19T13:02:54;2.47;;;0.77;;
70477;SDS011;57956;53.362;-1.518;2023-04-19T13:05:20;4.82;;;1.38;;
70477;SDS011;57956;53.362;-1.518;2023-04-19T13:07:45;3.47;;;0.83;;
70477;SDS011;57956;53.362;-1.518;2023-04-19T13:10:10;11.83;;;0.90;;
70477;SDS011;57956;53.362;-1.518;2023-04-19T13:12:36;1.95;;;0.55;;
70477;SDS011;57956;53.362;-1.518;2023-04-19T13:15:01;2.87;;;0.73;;
70477;SDS011;57956;53.362;-1.518;2023-04-19T13:17:27;4.43;;;1.17;;
70477;SDS011;57956;53.362;-1.518;2023-04-19T13:19:52;2.97;;;0.87;;
70477;SDS011;57956;53.362;-1.518;2023-04-19T13:22:17;3.50;;;0.60;;
70477;SDS011;57956;53.362;-1.518;2023-04-19T13:24:42;2.27;;;0.70;;
70477;SDS011;57956;53.362;-1.518;2023-04-19T13:27:08;2.30;;;0.67;;
70477;SDS011;57956;53.362;-1.518;2023-04-19T13:29:33;2.43;;;0.83;;
70477;SDS011;57956;53.362;-1.518;2023-04-19T13:31:58;3.33;;;0.80;;
70477;SDS011;57956;53.362;-1.518;2023-04-19T13:34:23;2.73;;;0.93;;
70477;SDS011;57956;53.362;-1.518;2023-04-19T13:36:49;2.33;;;0.47;;
70477;SDS011;57956;53.362;-1.518;2023-04-19T13:39:15;1.98;;;0.50;;
70477;SDS011;57956;53.362;-1.518;2023-04-19T13:41:40;2.33;;;0.80;;
70477;SDS011;57956;53.362;-1.518;2023-04-19T13:44:05;2.67;;;0.50;;
70477;SDS011;57956;53.362;-1.518;2023-04-19T13:46:31;2.37;;;0.40;;
70477;SDS011;57956;53.362;-1.518;2023-04-19T13:48:56;1.60;;;0.40;;
70477;SDS011;57956;53.362;-1.518;2023-04-19T13:51:22;6.63;;;0.85;;
70477;SDS011;57956;53.362;-1.518;2023-04-19T13:53:47;2.87;;;0.47;;
70477;SDS011;57956;53.362;-1.518;2023-04-19T13:56:12;2.63;;;0.60;;
70477;SDS011;57956;53.362;-1.518;2023-04-19T13:58:37;1.80;;;0.47;;
70477;SDS011;57956;53.362;-1.518;2023-04-19T14:01:02;3.03;;;1.00;;
70477;SDS011;57956;53.362;-1.518;2023-04-19T14:03:28;2.03;;;0.40;;
70477;SDS011;57956;53.362;-1.518;2023-04-19T14:05:53;2.27;;;0.40;;
70477;SDS011;57956;53.362;-1.518;2023-04-19T14:08:19;2.05;;;0.40;;
70477;SDS011;57956;53.362;-1.518;2023-04-19T14:10:45;3.20;;;0.80;;
70477;SDS011;57956;53.362;-1.518;2023-04-19T14:13:10;2.87;;;0.53;;
70477;SDS011;57956;53.362;-1.518;2023-04-19T14:15:35;1.33;;;0.20;;
70477;SDS011;57956;53.362;-1.518;2023-04-19T14:18:00;1.33;;;0.30;;
70477;SDS011;57956;53.362;-1.518;2023-04-19T14:20:26;1.30;;;0.20;;
70477;SDS011;57956;53.362;-1.518;2023-04-19T14:22:51;2.20;;;0.50;;
70477;SDS011;57956;53.362;-1.518;2023-04-19T14:25:19;1.20;;;0.20;;
70477;SDS011;57956;53.362;-1.518;2023-04-19T14:27:44;1.07;;;0.20;;
70477;SDS011;57956;53.362;-1.518;2023-04-19T14:30:09;2.70;;;0.30;;
70477;SDS011;57956;53.362;-1.518;2023-04-19T14:32:35;2.27;;;0.43;;
70477;SDS011;57956;53.362;-1.518;2023-04-19T14:35:00;1.63;;;0.40;;
70477;SDS011;57956;53.362;-1.518;2023-04-19T14:37:26;1.08;;;0.25;;